Latest Weather Observations for Lombadina

IDW60801

Issued at 6:02 pm WST Monday 27 April 2015 (issued every 30 minutes, with the page automatically refreshed every 10 minutes)

About weather observations | Map of weather stations | Latest weather observations for WA | Other Formats
Station Details ID: 503016 Name: LOMBADINA AIRSTRIP Lat: -16.52 Lon: 122.92 Height: 42.0 m
Data from the previous 72 hours. | See also: Recent months for locations in Western Australia
Date/Time
WST
Temp
°C
App
Temp
°C
Dew
Point
Rel
Hum
%
Delta-T
°C
Wind Press
QNH
hPa
Press
MSL
hPa
Rain
since 9 am
mm
Dir
 
Spd
km/h
Gust
km/h
Spd
kts
Gust
kts
27/06:00pm 23.2 26.0 17.9 72 3.3 CALM 0 0 0 0 1013.6 1013.3 0.0
27/05:30pm 25.4 28.2 18.0 63 4.7 CALM 0 0 0 0 1013.5 1013.2 0.0
27/05:00pm 28.4 29.1 12.2 36 9.4 CALM 0 4 0 2 1013.2 1012.9 0.0
27/04:30pm 29.2 29.0 11.8 34 10.1 SE 4 9 2 5 1013.3 1013.0 0.0
27/04:00pm 29.3 28.8 12.7 36 9.8 SE 7 15 4 8 1013.0 1012.7 0.0
27/03:30pm 29.6 28.4 11.6 33 10.4 SE 9 19 5 10 1012.6 1012.3 0.0
27/03:00pm 29.9 28.6 11.4 32 10.7 SE 9 17 5 9 1012.4 1012.1 0.0
27/02:30pm 29.9 28.8 11.9 33 10.5 ESE 9 17 5 9 1012.3 1012.0 0.0
27/02:00pm 30.1 28.3 11.0 30 11.0 ESE 11 22 6 12 1012.2 1011.9 0.0
27/01:30pm 30.1 27.9 10.8 30 11.1 E 13 20 7 11 1012.4 1012.1 0.0
27/01:00pm 30.4 28.4 11.6 31 10.9 E 13 26 7 14 1012.7 1012.4 0.0
27/12:30pm 30.4 28.3 11.3 30 11.1 ESE 13 28 7 15 1013.1 1012.8 0.0
27/12:00pm 29.9 27.7 13.2 36 9.9 E 17 28 9 15 1013.6 1013.3 0.0
27/11:30am 30.1 28.1 13.9 37 9.8 E 17 24 9 13 1013.9 1013.6 0.0
27/11:00am 30.6 29.4 15.1 39 9.5 E 15 26 8 14 1014.4 1014.1 0.0
27/10:30am 29.4 28.1 15.7 43 8.5 E 17 28 9 15 1014.8 1014.5 0.0
27/10:00am 30.0 29.5 17.0 45 8.2 E 15 24 8 13 1014.9 1014.6 0.0
27/09:30am 29.5 29.9 19.8 56 6.4 ESE 17 32 9 17 1015.0 1014.7 0.0
27/09:00am 29.9 32.4 21.1 59 5.9 ENE 9 24 5 13 1014.7 1014.4 0.0
27/08:30am 29.4 31.8 20.8 60 5.7 ENE 9 15 5 8 1014.8 1014.5 0.0
27/08:00am 28.3 31.7 21.6 67 4.5 ESE 6 11 3 6 1014.6 1014.3 0.0
27/07:30am 26.7 28.9 19.3 64 4.8 ESE 6 11 3 6 1014.5 1014.2 0.0
27/07:00am 24.4 25.4 16.9 63 4.6 SE 7 11 4 6 1014.3 1014.0 0.0
27/06:30am 21.8 22.1 14.6 63 4.2 SSE 6 9 3 5 1014.1 1013.8 0.0
27/06:00am 21.1 21.5 13.7 62 4.3 SSE 4 7 2 4 1013.8 1013.5 0.0
27/05:30am 21.5 22.3 13.7 61 4.5 S 2 7 1 4 1013.3 1013.0 0.0
27/05:00am 21.7 22.1 13.6 60 4.7 SSE 4 9 2 5 1012.7 1012.4 0.0
27/04:30am 22.7 22.5 13.5 56 5.3 SSE 7 13 4 7 1012.5 1012.2 0.0
27/04:00am 23.0 23.1 14.0 57 5.3 SE 6 11 3 6 1012.4 1012.1 0.0
27/03:30am 23.0 23.5 15.0 60 4.8 SSE 6 11 3 6 1012.6 1012.3 0.0
27/03:00am 21.8 23.7 16.7 73 3.1 SSE 2 7 1 4 1012.5 1012.2 0.0
27/02:30am 23.8 25.8 17.0 65 4.2 S 2 7 1 4 1012.6 1012.3 0.0
27/02:00am 23.9 25.7 18.4 71 3.5 SSW 6 9 3 5 1012.9 1012.6 0.0
27/01:30am 23.4 25.9 19.0 76 2.8 S 4 11 2 6 1012.9 1012.6 0.0
27/01:00am 23.4 26.2 20.5 84 1.9 S 6 9 3 5 1013.4 1013.1 0.0
27/12:30am 22.1 25.9 20.9 93 0.8 SSE 2 6 1 3 1013.5 1013.2 0.0
27/12:00am 21.6 25.1 20.3 92 0.8 S 2 6 1 3 1013.8 1013.5 0.0
 
Date/Time
WST
Temp
°C
App
Temp
°C
Dew
Point
Rel
Hum
%
Delta-T
°C
Wind Press
QNH
hPa
Press
MSL
hPa
Rain
since 9 am
mm
Dir
 
Spd
km/h
Gust
km/h
Spd
kts
Gust
kts
26/11:30pm 21.8 24.4 20.1 90 1.1 S 6 7 3 4 1014.1 1013.8 0.0
26/11:00pm 22.5 26.5 20.6 89 1.2 CALM 0 0 0 0 1014.1 1013.8 0.0
26/10:30pm 22.5 26.5 20.5 88 1.3 CALM 0 0 0 0 1014.0 1013.7 0.0
26/10:00pm 23.0 26.9 20.3 85 1.7 CALM 0 0 0 0 1014.0 1013.7 0.0
26/09:30pm 23.1 26.8 20.0 83 2.0 CALM 0 4 0 2 1014.2 1013.9 0.0
26/09:00pm 23.5 26.8 19.2 77 2.7 CALM 0 0 0 0 1014.1 1013.8 0.0
26/08:30pm 25.0 27.7 19.5 71 3.5 N 4 7 2 4 1014.2 1013.9 0.0
26/08:00pm 24.7 27.5 19.6 73 3.3 N 4 6 2 3 1014.2 1013.9 0.0
26/07:30pm 23.8 27.5 21.4 86 1.6 N 4 6 2 3 1014.2 1013.9 0.0
26/07:00pm 23.5 27.2 20.0 81 2.3 CALM 0 4 0 2 1014.2 1013.9 0.0
26/06:30pm 24.1 27.9 20.2 79 2.5 CALM 0 0 0 0 1013.8 1013.5 0.0
26/06:00pm 26.1 28.4 19.5 67 4.3 ENE 6 6 3 3 1013.2 1012.9 0.0
26/05:30pm 28.1 30.2 18.0 54 6.4 NE 4 6 2 3 1013.1 1012.8 0.0
26/05:00pm 29.5 30.4 16.6 45 8.1 ENE 7 11 4 6 1012.7 1012.4 0.0
26/04:30pm 30.4 30.7 16.1 42 8.9 ENE 9 17 5 9 1012.3 1012.0 0.0
26/04:00pm 31.0 32.1 18.0 45 8.4 ENE 9 17 5 9 1011.8 1011.5 0.0
26/03:30pm 31.3 32.1 19.0 48 8.0 ENE 13 20 7 11 1011.6 1011.3 0.0
26/03:00pm 31.3 31.3 17.2 42 9.0 ENE 13 22 7 12 1011.5 1011.2 0.0
26/02:30pm 30.3 33.4 23.5 67 4.7 ENE 13 22 7 12 1011.4 1011.1 0.0
26/02:00pm 30.1 32.1 23.0 65 4.9 ENE 17 24 9 13 1011.4 1011.1 0.0
26/01:30pm 31.0 33.4 22.9 62 5.6 ENE 15 26 8 14 1011.5 1011.2 0.0
26/01:00pm 31.2 32.9 22.3 59 6.1 ENE 17 28 9 15 1011.6 1011.3 0.0
26/12:30pm 31.3 33.1 23.2 62 5.6 E 19 30 10 16 1012.0 1011.7 0.0
26/12:00pm 31.6 33.4 21.1 53 7.1 ESE 13 28 7 15 1012.2 1011.9 0.0
26/11:30am 30.6 31.6 19.5 51 7.3 SE 13 20 7 11 1012.6 1012.3 0.0
26/11:00am 29.8 30.2 19.0 52 7.0 SE 15 28 8 15 1013.0 1012.7 0.0
26/10:30am 29.9 29.9 18.0 48 7.6 ESE 15 24 8 13 1013.2 1012.9 0.0
26/10:00am 29.6 28.9 17.3 47 7.8 SE 17 30 9 16 1013.4 1013.1 0.0
26/09:30am 29.1 28.4 17.4 49 7.4 SE 17 32 9 17 1013.4 1013.1 0.0
26/09:00am 28.8 28.3 16.8 48 7.5 SE 15 24 8 13 1013.5 1013.2 0.0
26/08:30am 28.3 27.8 16.8 49 7.2 SE 15 26 8 14 1013.3 1013.0 0.0
26/08:00am 28.3 27.5 17.2 51 7.0 SE 17 33 9 18 1012.9 1012.6 0.0
26/07:30am 26.8 27.5 17.0 55 6.1 SSE 9 17 5 9 1012.8 1012.5 0.0
26/07:00am 26.0 25.9 15.9 53 6.2 SSE 11 19 6 10 1012.5 1012.2 0.0
26/06:30am 25.3 25.3 15.1 53 6.1 SSE 9 17 5 9 1012.2 1011.9 0.0
26/06:00am 25.3 25.2 15.0 53 6.2 SE 9 13 5 7 1011.7 1011.4 0.0
26/05:30am 25.8 25.7 14.9 51 6.6 SE 9 15 5 8 1011.4 1011.1 0.0
26/05:00am 25.1 24.8 13.3 48 6.9 SE 7 13 4 7 1011.3 1011.0 0.0
26/04:30am 25.0 24.4 12.2 44 7.3 SE 7 13 4 7 1011.1 1010.8 0.0
26/04:00am 25.1 24.3 11.7 43 7.6 SSE 7 13 4 7 1011.1 1010.8 0.0
26/03:30am 25.1 24.1 12.3 45 7.4 SSE 9 15 5 8 1011.2 1010.9 0.0
26/03:00am 25.2 24.3 12.5 45 7.3 SSE 9 17 5 9 1011.2 1010.9 0.0
26/02:30am 25.3 24.9 13.0 46 7.2 SSE 7 11 4 6 1011.3 1011.0 0.0
26/02:00am 25.2 24.9 13.3 47 7.0 SSE 7 11 4 6 1011.5 1011.2 0.0
26/01:30am 24.4 25.1 15.6 58 5.3 SSE 6 9 3 5 1011.8 1011.5 0.0
26/01:00am 22.2 25.3 19.6 85 1.7 SSW 2 6 1 3 1012.1 1011.8 0.0
26/12:30am 22.8 26.7 20.3 86 1.6 CALM 0 0 0 0 1012.4 1012.1 0.0
26/12:00am 23.0 26.9 20.3 85 1.7 CALM 0 0 0 0 1012.7 1012.4 0.0
 
Date/Time
WST
Temp
°C
App
Temp
°C
Dew
Point
Rel
Hum
%
Delta-T
°C
Wind Press
QNH
hPa
Press
MSL
hPa
Rain
since 9 am
mm
Dir
 
Spd
km/h
Gust
km/h
Spd
kts
Gust
kts
25/11:30pm 23.5 27.5 20.5 83 2.0 CALM 0 0 0 0 1012.8 1012.5 0.0
25/11:00pm 23.9 27.9 20.5 81 2.2 CALM 0 0 0 0 1012.9 1012.6 0.0
25/10:30pm 23.6 26.9 19.2 76 2.8 CALM 0 4 0 2 1013.0 1012.7 0.0
25/10:00pm 24.0 28.3 21.1 84 1.9 CALM 0 2 0 1 1013.2 1012.9 0.0
25/09:30pm 24.6 28.6 20.5 78 2.7 CALM 0 2 0 1 1013.1 1012.8 0.0
25/09:00pm 25.2 28.5 20.0 73 3.4 SSE 2 6 1 3 1013.2 1012.9 0.0
25/08:30pm 25.3 28.8 19.5 70 3.7 CALM 0 4 0 2 1013.2 1012.9 0.0
25/08:00pm 25.5 29.4 21.9 80 2.4 S 4 7 2 4 1013.2 1012.9 0.0
25/07:30pm 25.6 31.0 23.2 86 1.6 CALM 0 0 0 0 1012.9 1012.6 0.0
25/07:00pm 25.8 30.9 22.6 82 2.2 CALM 0 2 0 1 1012.6 1012.3 0.0
25/06:30pm 25.8 31.0 22.8 83 2.0 CALM 0 0 0 0 1012.2 1011.9 0.0
25/06:00pm 26.1 31.2 22.6 81 2.4 CALM 0 0 0 0 1011.9 1011.6 0.0
25/05:30pm 27.1 32.0 22.3 75 3.2 CALM 0 0 0 0 1011.5 1011.2 0.0
25/05:00pm 28.0 32.6 21.8 69 4.2 CALM 0 0 0 0 1011.2 1010.9 0.0
25/04:30pm 28.7 32.3 20.5 61 5.4 S 2 4 1 2 1010.8 1010.5 0.0
25/04:00pm 29.0 32.5 20.4 59 5.7 SSE 2 6 1 3 1010.6 1010.3 0.0
25/03:30pm 29.2 32.4 19.8 57 6.2 SSE 2 6 1 3 1010.3 1010.0 0.0
25/03:00pm 29.3 31.1 18.4 51 7.0 SE 6 7 3 4 1010.3 1010.0 0.0
25/02:30pm 29.8 31.0 18.2 49 7.4 SE 9 15 5 8 1010.1 1009.8 0.0
25/02:00pm 29.9 30.7 17.4 47 7.9 SE 9 19 5 10 1010.0 1009.7 0.0
25/01:30pm 29.5 30.1 17.7 49 7.5 SE 11 20 6 11 1010.3 1010.0 0.0
25/01:00pm 29.6 29.9 17.8 49 7.5 SE 13 26 7 14 1010.5 1010.2 0.0
25/12:30pm 29.9 29.7 17.7 48 7.8 SE 15 26 8 14 1010.7 1010.4 0.0
25/12:00pm 29.6 29.9 17.8 49 7.5 SE 13 26 7 14 1010.9 1010.6 0.0
25/11:30am 29.6 29.5 17.9 49 7.5 SE 15 28 8 15 1011.2 1010.9 0.0
25/11:00am 29.8 29.5 18.3 50 7.4 SE 17 28 9 15 1011.6 1011.3 0.0
25/10:30am 29.0 28.5 17.9 51 7.1 SE 17 37 9 20 1011.8 1011.5 0.0
25/10:00am 28.8 28.5 17.3 49 7.3 SE 15 24 8 13 1012.0 1011.7 0.0
25/09:30am 28.8 28.6 17.6 50 7.1 ESE 15 30 8 16 1012.2 1011.9 0.0
25/09:00am 29.2 28.5 17.4 49 7.5 SE 17 26 9 14 1012.3 1012.0 0.0
25/08:30am 28.9 29.1 17.7 50 7.1 ESE 13 35 7 19 1012.2 1011.9 0.0
25/08:00am 29.4 29.2 17.6 49 7.5 ESE 15 28 8 15 1011.8 1011.5 0.0
25/07:30am 28.7 27.3 16.6 48 7.6 ESE 19 33 10 18 1011.8 1011.5 0.0
25/07:00am 28.6 28.0 16.6 48 7.5 ESE 15 28 8 15 1011.5 1011.2 0.0
25/06:30am 28.1 27.3 16.1 48 7.4 ESE 15 26 8 14 1011.4 1011.1 0.0
25/06:00am 28.3 27.4 15.8 46 7.7 ESE 15 30 8 16 1010.8 1010.5 0.0
25/05:30am 28.2 27.5 16.5 49 7.3 ESE 15 26 8 14 1010.5 1010.2 0.0
25/05:00am 25.9 26.8 16.7 57 5.7 SE 7 15 4 8 1010.3 1010.0 0.0
25/04:30am 25.5 26.2 15.5 54 6.1 SE 6 11 3 6 1010.3 1010.0 0.0
25/04:00am 25.6 26.3 15.5 53 6.1 SE 6 11 3 6 1010.5 1010.2 0.0
25/03:30am 25.9 26.9 16.4 55 5.9 SSE 6 9 3 5 1010.4 1010.1 0.0
25/03:00am 25.9 27.4 16.7 57 5.7 SE 4 9 2 5 1010.4 1010.1 0.0
25/02:30am 26.2 26.8 16.7 56 5.9 SSE 9 15 5 8 1010.4 1010.1 0.0
25/02:00am 26.2 27.9 18.0 60 5.2 S 6 13 3 7 1010.7 1010.4 0.0
25/01:30am 25.5 28.6 19.4 69 3.9 S 2 6 1 3 1010.9 1010.6 0.0
25/01:00am 25.5 28.7 19.8 70 3.7 SSW 2 9 1 5 1011.2 1010.9 0.0
25/12:30am 24.9 28.1 20.4 76 2.9 SSW 4 7 2 4 1011.3 1011.0 0.0
25/12:00am 24.7 29.6 22.3 86 1.6 CALM 0 4 0 2 1011.4 1011.1 0.0
 
Date/Time
WST
Temp
°C
App
Temp
°C
Dew
Point
Rel
Hum
%
Delta-T
°C
Wind Press
QNH
hPa
Press
MSL
hPa
Rain
since 9 am
mm
Dir
 
Spd
km/h
Gust
km/h
Spd
kts
Gust
kts
24/11:30pm 25.1 28.8 21.4 80 2.5 SSW 4 6 2 3 1011.6 1011.3 0.0
24/11:00pm 25.2 29.9 21.9 82 2.2 CALM 0 0 0 0 1011.6 1011.3 0.0
24/10:30pm 25.6 29.3 20.8 75 3.2 S 2 6 1 3 1011.5 1011.2 0.0
24/10:00pm 25.0 29.8 22.1 84 1.9 CALM 0 0 0 0 1011.6 1011.3 0.0
24/09:30pm 25.9 29.8 21.2 75 3.1 S 2 7 1 4 1011.9 1011.6 0.0
24/09:00pm 25.5 29.4 21.2 77 2.8 SSE 2 6 1 3 1011.6 1011.3 0.0
24/08:30pm 26.0 30.3 21.2 75 3.2 CALM 0 2 0 1 1011.5 1011.2 0.0
24/08:00pm 25.9 30.2 21.1 75 3.2 CALM 0 2 0 1 1011.6 1011.3 0.0
24/07:30pm 26.3 29.2 19.8 67 4.2 S 4 6 2 3 1011.6 1011.3 0.0
24/07:00pm 26.3 31.1 22.1 77 2.8 CALM 0 4 0 2 1011.4 1011.1 0.0
24/06:30pm 26.4 29.9 21.1 72 3.5 SSE 4 7 2 4 1010.9 1010.6 0.0

Other Formats:

Comma delimited format used in spreadsheet applications
http://www.bom.gov.au/fwo/IDW60801/IDW60801.99206.axf

JavaScript Object Notation format (JSON) in row-major order
http://www.bom.gov.au/fwo/IDW60801/IDW60801.99206.json